Météo Nord-Pas-de-Calais   La météo au plus près de chez vous

Station météorologique

Observations météo à Embrun (05046)

05046001 873 m Dernier relevé à 10:18
19.8°C
Humidité 55 % Vent 13.7 km/h

Journée consultée

Mardi 1 Septembre 2026

Synthèse de la journée

Périodes de référence en UTC

Température maximale

19.8°C

à 10:18

06h 06h

Température minimale

11.8°C

à 08:00

18h 18h

Rafale maximale

26 km/h

à 09:48

00h 00h

Précipitations

0 mm

Cumul quotidien

06h 06h

Ensoleillement

1h 51 mins

Durée quotidienne

00h 00h

Graphiques de la journée

Heure locale Réduire

Données détaillées

Relevés météo

Pas de 6 minutes Afficher les relevés infra-horaires
Relevés météo détaillés à Embrun pour le Mardi 1 Septembre 2026
Heure Température °C Point de rosée °C Humidité % Vent moyen (raf.), km/h Précipitations mm Température à 10 cm °C Température à 20 cm °C Température à 50 cm °C Température à 100 cm °C Hauteur neige cm Ensoleillement min Rayonnement global W/m²
10:18 19.8 °C 7.8 °C 46 % 9 km/h (19 km/h) 0 mm0 mm 18.3 °C 19.8 °C 20.1 °C 19.5 °C 0 cm 6 min 175.4 W/m²
10:12 19.5 °C 7.6 °C 46 % 9 km/h (19 km/h) 0 mm0 mm 18.3 °C 19.8 °C 20.1 °C 19.5 °C 0 cm 6 min 171.6 W/m²
10:06 19.3 °C 8.3 °C 49 % 8 km/h (17 km/h) 0 mm0 mm 18.3 °C 19.9 °C 20.1 °C 19.5 °C 0 cm 6 min 166.3 W/m²
10:00 18.9 °C 8.2 °C 50 % 8 km/h (16 km/h) 0 mm0 mm 18.3 °C 19.9 °C 20.1 °C 19.5 °C 0 cm 6 min 160.5 W/m²
09:54 18.7 °C 8.6 °C 52 % 13 km/h (23 km/h) 0 mm0 mm 18.3 °C 19.9 °C 20.1 °C 19.5 °C 0 cm 6 min 155.3 W/m²
09:48 17.9 °C 7.9 °C 52 % 15 km/h (26 km/h) 0 mm0 mm 18.4 °C 19.9 °C 20.1 °C 19.5 °C 0 cm 6 min 147.9 W/m²
09:42 18.1 °C 8.4 °C 53 % 13 km/h (24 km/h) 0 mm0 mm 18.4 °C 19.9 °C 20.1 °C 19.5 °C 0 cm 6 min 141.4 W/m²
09:36 17.9 °C 9.3 °C 57 % 13 km/h (24 km/h) 0 mm0 mm 18.4 °C 20 °C 20.1 °C 19.5 °C 0 cm 6 min 135.5 W/m²
09:30 17.5 °C 8.1 °C 54 % 9 km/h (20 km/h) 0 mm0 mm 18.5 °C 20 °C 20.1 °C 19.5 °C 0 cm 6 min 130.1 W/m²
09:24 17.4 °C 8.8 °C 57 % 9 km/h (18 km/h) 0 mm0 mm 18.5 °C 20 °C 20.1 °C 19.5 °C 0 cm 6 min 124.6 W/m²
09:18 16.8 °C 7.7 °C 55 % 14 km/h (23 km/h) 0 mm0 mm 18.5 °C 20 °C 20.1 °C 19.5 °C 0 cm 6 min 119.6 W/m²
09:12 16.3 °C 8 °C 58 % 14 km/h (23 km/h) 0 mm0 mm 18.5 °C 20 °C 20.1 °C 19.5 °C 0 cm 6 min 114.3 W/m²
09:06 16.3 °C 8.3 °C 59 % 10 km/h (22 km/h) 0 mm0 mm 18.6 °C 20 °C 20.1 °C 19.5 °C 0 cm 6 min 108.2 W/m²
09:00 15.9 °C 8.1 °C 60 % 13 km/h (22 km/h) 0 mm0 mm 18.6 °C 20.1 °C 20.2 °C 19.5 °C 0 cm 6 min 102.1 W/m²
08:54 15.2 °C 8 °C 62 % 17 km/h (25 km/h) 0 mm0 mm 18.6 °C 20.1 °C 20.2 °C 19.5 °C 0 cm 6 min 96.2 W/m²
08:48 14.5 °C 8.2 °C 66 % 14 km/h (25 km/h) 0 mm0 mm 18.7 °C 20.1 °C 20.1 °C 19.5 °C 0 cm 6 min 90.2 W/m²
08:42 13.9 °C 8.1 °C 68 % 11 km/h (18 km/h) 0 mm0 mm 18.7 °C 20.1 °C 20.2 °C 19.5 °C 0 cm 6 min 83.9 W/m²
08:36 13.8 °C 8 °C 68 % 13 km/h (19 km/h) 0 mm0 mm 18.7 °C 20.2 °C 20.2 °C 19.5 °C 0 cm 6 min 77.8 W/m²
08:30 12.5 °C 7.2 °C 70 % 12 km/h (19 km/h) 0 mm0 mm 18.7 °C 20.2 °C 20.2 °C 19.5 °C 0 cm 3 min 43.9 W/m²
08:24 12.3 °C 7.2 °C 71 % 12 km/h (16 km/h) 0 mm0 mm 18.8 °C 20.2 °C 20.1 °C 19.5 °C 0 cm 0 min 8.8 W/m²
08:18 12.3 °C 7.2 °C 71 % 12 km/h (19 km/h) 0 mm0 mm 18.8 °C 20.2 °C 20.2 °C 19.5 °C 0 cm 0 min 8.2 W/m²
08:12 12.3 °C 7.2 °C 71 % 11 km/h (19 km/h) 0 mm0 mm 18.8 °C 20.3 °C 20.1 °C 19.5 °C 0 cm 0 min 7.6 W/m²
08:06 11.9 °C 7.4 °C 74 % 8 km/h (14 km/h) 0 mm0 mm 18.9 °C 20.3 °C 20.2 °C 19.5 °C 0 cm 0 min 7 W/m²
08:00 11.9 °C 7.2 °C 73 % 8 km/h (14 km/h) 0 mm0 mm 18.9 °C 20.3 °C 20.1 °C 19.5 °C 0 cm 0 min 6.5 W/m²
07:54 12.1 °C 7.2 °C 72 % 9 km/h (15 km/h) 0 mm0 mm 18.9 °C 20.3 °C 20.2 °C 19.5 °C 0 cm 0 min 6 W/m²
07:48 11.9 °C 7.2 °C 73 % 10 km/h (15 km/h) 0 mm0 mm 19 °C 20.3 °C 20.2 °C 19.5 °C 0 cm 0 min 5.2 W/m²
07:42 11.9 °C 7.2 °C 73 % 6 km/h (13 km/h) 0 mm0 mm 19 °C 20.4 °C 20.2 °C 19.5 °C 0 cm 0 min 4.6 W/m²
07:36 12.3 °C 7.2 °C 71 % 6 km/h (11 km/h) 0 mm0 mm 19 °C 20.4 °C 20.2 °C 19.5 °C 0 cm 0 min 4 W/m²
07:30 12.5 °C 7.2 °C 70 % 7 km/h (11 km/h) 0 mm0 mm 19.1 °C 20.4 °C 20.2 °C 19.5 °C 0 cm 0 min 0.6 W/m²
07:24 12.8 °C 7.2 °C 69 % 7 km/h (10 km/h) 0 mm0 mm 19.1 °C 20.4 °C 20.2 °C 19.5 °C 0 cm 0 min 0 W/m²
07:18 12.9 °C 7.1 °C 68 % 10 km/h (18 km/h) 0 mm0 mm 19.1 °C 20.4 °C 20.2 °C 19.5 °C 0 cm 0 min 0 W/m²
07:12 13 °C 7.2 °C 68 % 13 km/h (22 km/h) 0 mm0 mm 19.2 °C 20.5 °C 20.2 °C 19.5 °C 0 cm 0 min 0 W/m²
07:06 12.3 °C 7.4 °C 72 % 11 km/h (22 km/h) 0 mm0 mm 19.2 °C 20.5 °C 20.2 °C 19.5 °C 0 cm 0 min 0 W/m²
07:00 11.9 °C 7.2 °C 73 % 8 km/h (21 km/h) 0 mm0 mm 19.2 °C 20.5 °C 20.2 °C 19.5 °C 0 cm 0 min 0 W/m²
06:54 12 °C 7.1 °C 72 % 8 km/h (12 km/h) 0 mm0 mm 19.3 °C 20.5 °C 20.2 °C 19.5 °C 0 cm 0 min 0 W/m²
06:48 12.6 °C 7.1 °C 69 % 9 km/h (15 km/h) 0 mm0 mm 19.3 °C 20.5 °C 20.2 °C 19.5 °C 0 cm 0 min 0 W/m²
06:42 13 °C 7.2 °C 68 % 10 km/h (15 km/h) 0 mm0 mm 19.3 °C 20.5 °C 20.2 °C 19.5 °C 0 cm 0 min 0 W/m²
06:36 12.7 °C 7.2 °C 69 % 10 km/h (15 km/h) 0 mm0 mm 19.4 °C 20.6 °C 20.2 °C 19.5 °C 0 cm 0 min 0 W/m²
06:30 12.2 °C 7.3 °C 72 % 8 km/h (14 km/h) 0 mm0 mm 19.4 °C 20.6 °C 20.1 °C 19.5 °C 0 cm 0 min 0 W/m²
06:24 12.2 °C 7.3 °C 72 % 6 km/h (9 km/h) 0 mm0 mm 19.4 °C 20.6 °C 20.2 °C 19.5 °C 0 cm 0 min 0 W/m²
06:18 12.3 °C 7.4 °C 72 % 6 km/h (10 km/h) 0 mm0 mm 19.5 °C 20.6 °C 20.2 °C 19.5 °C 0 cm 0 min 0 W/m²
06:12 12.3 °C 7.6 °C 73 % 7 km/h (12 km/h) 0 mm0 mm 19.5 °C 20.7 °C 20.2 °C 19.5 °C 0 cm 0 min 0 W/m²
06:06 12.6 °C 7.5 °C 71 % 8 km/h (12 km/h) 0 mm0 mm 19.5 °C 20.7 °C 20.1 °C 19.5 °C 0 cm 0 min 0 W/m²
06:00 12.6 °C 7.5 °C 71 % 6 km/h (11 km/h) 0 mm0 mm 19.6 °C 20.7 °C 20.2 °C 19.5 °C 0 cm 0 min 0 W/m²
05:54 12.5 °C 7.2 °C 70 % 4 km/h (9 km/h) 0 mm0 mm 19.6 °C 20.7 °C 20.1 °C 19.5 °C 0 cm 0 min 0 W/m²
05:48 12.5 °C 7.6 °C 72 % 3 km/h (8 km/h) 0 mm0 mm 19.6 °C 20.7 °C 20.2 °C 19.5 °C 0 cm 0 min 0 W/m²
05:42 12.7 °C 7.6 °C 71 % 4 km/h (10 km/h) 0 mm0 mm 19.7 °C 20.8 °C 20.2 °C 19.5 °C 0 cm 0 min 0 W/m²
05:36 12.8 °C 7.5 °C 70 % 5 km/h (11 km/h) 0 mm0 mm 19.7 °C 20.8 °C 20.1 °C 19.5 °C 0 cm 0 min 0 W/m²
05:30 12.8 °C 7.7 °C 71 % 8 km/h (15 km/h) 0 mm0 mm 19.7 °C 20.8 °C 20.2 °C 19.5 °C 0 cm 0 min 0 W/m²
05:24 13.2 °C 7.6 °C 69 % 10 km/h (20 km/h) 0 mm0 mm 19.8 °C 20.8 °C 20.2 °C 19.5 °C 0 cm 0 min 0 W/m²
05:18 13.4 °C 8 °C 70 % 10 km/h (20 km/h) 0 mm0 mm 19.8 °C 20.8 °C 20.1 °C 19.5 °C 0 cm 0 min 0 W/m²
05:12 13.4 °C 7.6 °C 68 % 7 km/h (15 km/h) 0 mm0 mm 19.8 °C 20.9 °C 20.1 °C 19.5 °C 0 cm 0 min 0 W/m²
05:06 13.2 °C 7.8 °C 70 % 6 km/h (11 km/h) 0 mm0 mm 19.8 °C 20.9 °C 20.1 °C 19.5 °C 0 cm 0 min 0 W/m²
05:00 13.2 °C 7.8 °C 70 % 8 km/h (14 km/h) 0 mm0 mm 19.9 °C 20.9 °C 20.1 °C 19.5 °C 0 cm 0 min 0 W/m²
04:54 13.2 °C 7.8 °C 70 % 9 km/h (14 km/h) 0 mm0 mm 19.9 °C 20.9 °C 20.1 °C 19.5 °C 0 cm 0 min 0 W/m²
04:48 13.2 °C 8.1 °C 71 % 9 km/h (13 km/h) 0 mm0 mm 20 °C 20.9 °C 20.1 °C 19.5 °C 0 cm 0 min 0 W/m²
04:42 13.4 °C 8 °C 70 % 9 km/h (13 km/h) 0 mm0 mm 20 °C 20.9 °C 20.1 °C 19.5 °C 0 cm 0 min 0 W/m²
04:36 13.4 °C 8 °C 70 % 10 km/h (15 km/h) 0 mm0 mm 20 °C 21 °C 20.1 °C 19.5 °C 0 cm 0 min 0 W/m²
04:30 13.7 °C 8.1 °C 69 % 10 km/h (15 km/h) 0 mm0 mm 20.1 °C 21 °C 20.1 °C 19.5 °C 0 cm 0 min 0 W/m²
04:24 13.6 °C 8.2 °C 70 % 10 km/h (15 km/h) 0 mm0 mm 20.1 °C 21 °C 20.1 °C 19.5 °C 0 cm 0 min 0 W/m²
04:18 13.4 °C 8.2 °C 71 % 9 km/h (15 km/h) 0 mm0 mm 20.1 °C 21 °C 20.1 °C 19.5 °C 0 cm 0 min 0 W/m²
04:12 13.2 °C 8.3 °C 72 % 9 km/h (13 km/h) 0 mm0 mm 20.2 °C 21.1 °C 20.1 °C 19.5 °C 0 cm 0 min 0 W/m²
04:06 13.2 °C 8.5 °C 73 % 9 km/h (13 km/h) 0 mm0 mm 20.2 °C 21.1 °C 20.1 °C 19.5 °C 0 cm 0 min 0 W/m²
04:00 13.2 °C 8.5 °C 73 % 10 km/h (13 km/h) 0 mm0 mm 20.2 °C 21.1 °C 20.1 °C 19.5 °C 0 cm 0 min 0 W/m²
03:54 13.3 °C 8.4 °C 72 % 9 km/h (13 km/h) 0 mm0 mm 20.3 °C 21.1 °C 20.1 °C 19.5 °C 0 cm 0 min 0 W/m²
03:48 13.4 °C 8.5 °C 72 % 10 km/h (15 km/h) 0 mm0 mm 20.3 °C 21.1 °C 20.1 °C 19.5 °C 0 cm 0 min 0 W/m²
03:42 13.7 °C 8.5 °C 71 % 11 km/h (15 km/h) 0 mm0 mm 20.3 °C 21.1 °C 20.1 °C 19.5 °C 0 cm 0 min 0 W/m²
03:36 13.9 °C 8.5 °C 70 % 10 km/h (15 km/h) 0 mm0 mm 20.4 °C 21.2 °C 20.1 °C 19.5 °C 0 cm 0 min 0 W/m²
03:30 14.2 °C 8.4 °C 68 % 11 km/h (16 km/h) 0 mm0 mm 20.4 °C 21.2 °C 20.1 °C 19.5 °C 0 cm 0 min 0 W/m²
03:24 14.1 °C 8.5 °C 69 % 12 km/h (16 km/h) 0 mm0 mm 20.5 °C 21.2 °C 20.1 °C 19.5 °C 0 cm 0 min 0 W/m²
03:18 14.1 °C 8.5 °C 69 % 10 km/h (14 km/h) 0 mm0 mm 20.5 °C 21.2 °C 20.1 °C 19.5 °C 0 cm 0 min 0 W/m²
03:12 14.1 °C 8.5 °C 69 % 10 km/h (14 km/h) 0 mm0 mm 20.5 °C 21.2 °C 20.1 °C 19.5 °C 0 cm 0 min 0 W/m²
03:06 14.4 °C 8.6 °C 68 % 11 km/h (14 km/h) 0 mm0 mm 20.6 °C 21.3 °C 20.1 °C 19.5 °C 0 cm 0 min 0 W/m²
03:00 14.3 °C 8.7 °C 69 % 9 km/h (14 km/h) 0 mm0 mm 20.6 °C 21.3 °C 20.1 °C 19.5 °C 0 cm 0 min 0 W/m²
02:54 14.3 °C 8.7 °C 69 % 8 km/h (12 km/h) 0 mm0 mm 20.6 °C 21.3 °C 20.1 °C 19.5 °C 0 cm 0 min 0 W/m²
02:48 14.4 °C 8.8 °C 69 % 8 km/h (11 km/h) 0 mm0 mm 20.7 °C 21.3 °C 20.1 °C 19.5 °C 0 cm 0 min 0 W/m²
02:42 14.4 °C 8.6 °C 68 % 8 km/h (11 km/h) 0 mm0 mm 20.7 °C 21.3 °C 20.1 °C 19.5 °C 0 cm 0 min 0 W/m²
02:36 14.4 °C 8.6 °C 68 % 9 km/h (13 km/h) 0 mm0 mm 20.7 °C 21.3 °C 20.1 °C 19.5 °C 0 cm 0 min 0 W/m²
02:30 14.6 °C 9 °C 69 % 9 km/h (14 km/h) 0 mm0 mm 20.8 °C 21.3 °C 20.1 °C 19.5 °C 0 cm 0 min 0 W/m²
02:24 14.5 °C 8.7 °C 68 % 8 km/h (12 km/h) 0 mm0 mm 20.8 °C 21.4 °C 20.1 °C 19.5 °C 0 cm 0 min 0 W/m²
02:18 14.3 °C 8.7 °C 69 % 8 km/h (11 km/h) 0 mm0 mm 20.8 °C 21.4 °C 20.1 °C 19.5 °C 0 cm 0 min 0 W/m²
02:12 14.3 °C 8.7 °C 69 % 6 km/h (11 km/h) 0 mm0 mm 20.9 °C 21.4 °C 20.1 °C 19.5 °C 0 cm 0 min 0 W/m²
02:06 14.5 °C 8.7 °C 68 % 6 km/h (10 km/h) 0 mm0 mm 20.9 °C 21.4 °C 20.1 °C 19.5 °C 0 cm 0 min 0 W/m²
02:00 14.7 °C 8.6 °C 67 % 7 km/h (12 km/h) 0 mm0 mm 20.9 °C 21.4 °C 20.1 °C 19.5 °C 0 cm 0 min 0 W/m²
01:54 15 °C 8.7 °C 66 % 8 km/h (12 km/h) 0 mm0 mm 21 °C 21.4 °C 20 °C 19.5 °C 0 min 0 W/m²
01:48 15 °C 8.7 °C 66 % 8 km/h (10 km/h) 0 mm0 mm 21.1 °C 21.5 °C 20.1 °C 19.5 °C 0 min 0 W/m²
01:42 15 °C 8.9 °C 67 % 8 km/h (10 km/h) 0 mm0 mm 21.1 °C 21.5 °C 20 °C 19.5 °C 0 min 0 W/m²
01:36 14.9 °C 9.3 °C 69 % 6 km/h (9 km/h) 0 mm0 mm 21.1 °C 21.5 °C 20 °C 19.5 °C 0 min 0 W/m²
01:30 14.9 °C 9.3 °C 69 % 5 km/h (9 km/h) 0 mm0 mm 21.2 °C 21.5 °C 20 °C 19.5 °C 0 min 0 W/m²
01:24 15.1 °C 9.2 °C 68 % 6 km/h (9 km/h) 0 mm0 mm 21.2 °C 21.5 °C 20 °C 19.5 °C 0 min 0 W/m²
01:18 15.3 °C 9.2 °C 67 % 6 km/h (9 km/h) 0 mm0 mm 21.2 °C 21.5 °C 20 °C 19.5 °C 0 min 0 W/m²
01:12 15.4 °C 9.3 °C 67 % 6 km/h (9 km/h) 0 mm0 mm 21.3 °C 21.5 °C 20 °C 19.5 °C 0 min 0 W/m²
01:06 15.4 °C 9.3 °C 67 % 5 km/h (9 km/h) 0 mm0 mm 21.3 °C 21.5 °C 20 °C 19.5 °C 0 min 0 W/m²
01:00 15.5 °C 9.2 °C 66 % 4 km/h (9 km/h) 0 mm0 mm 21.3 °C 21.6 °C 20 °C 19.5 °C 0 min 0 W/m²
00:54 15.4 °C 9.1 °C 66 % 5 km/h (10 km/h) 0 mm0 mm 21.4 °C 21.6 °C 20 °C 19.5 °C 0 min 0 W/m²
00:48 15.6 °C 9 °C 65 % 9 km/h (13 km/h) 0 mm0 mm 21.4 °C 21.6 °C 20 °C 19.5 °C 0 min 0 W/m²
00:42 15.7 °C 8.7 °C 63 % 10 km/h (14 km/h) 0 mm0 mm 21.4 °C 21.6 °C 20 °C 19.5 °C 0 min 0 W/m²
00:36 16.2 °C 8.7 °C 61 % 11 km/h (16 km/h) 0 mm0 mm 21.5 °C 21.6 °C 20 °C 19.5 °C 0 min 0 W/m²
00:30 16.2 °C 8.7 °C 61 % 11 km/h (16 km/h) 0 mm0 mm 21.5 °C 21.6 °C 20 °C 19.5 °C 0 min 0 W/m²
00:24 16.4 °C 8.6 °C 60 % 10 km/h (15 km/h) 0 mm0 mm 21.6 °C 21.6 °C 20 °C 19.5 °C 0 min 0 W/m²
00:18 16.4 °C 8.6 °C 60 % 9 km/h (12 km/h) 0 mm0 mm 21.6 °C 21.6 °C 20 °C 19.5 °C 0 min 0 W/m²
00:12 16.1 °C 8.8 °C 62 % 7 km/h (12 km/h) 0 mm0 mm 21.6 °C 21.6 °C 20 °C 19.5 °C 0 min 0 W/m²
00:06 16.5 °C 9.2 °C 62 % 6 km/h (12 km/h) 0 mm0 mm 21.7 °C 21.6 °C 20 °C 19.5 °C 0 min 0 W/m²
00:00 17.2 °C 8.9 °C 58 % 9 km/h (12 km/h) 0 mm0 mm 21.7 °C 21.7 °C 20 °C 19.5 °C 0 min 0 W/m²

Données via Météo-France

Relevés météo à Embrun

Cette page rassemble les observations de la station de Embrun : température, humidité, vent, précipitations et pression atmosphérique. Les graphiques facilitent le suivi de la journée, tandis que le tableau donne accès aux mesures horaires et infra-horaires disponibles.

Pour replacer ces mesures dans leur contexte, consultez la climatologie de Embrun ainsi que ses normales et records. Retrouvez aussi la carte des observations météo en temps réel.